Tuntutuliak, Alaska
Current Conditions -  °F | °C
As of 11:56 AM on Thursday 18 Dec 2014 (Local Time) from PANA Reporting Station
Overcast Overcast  
Wind Chill: 16°   Ceiling: 10000
Heat Index: 23°   Visibility: 10mi
Dew Point: 19°   Wind: 6mph
Humidity: 85%   Direction: 40°NE
Pressure: 29.39"   Gusts: NA
Location:  60.33°N, 162.74°W
Report Text: PANA 182056Z AUTO 04005KT 10SM OVC100 M05/M07 A2939 RMK AO2 SLP954 T10501072 58010 FZRANO
Loading
Personal Weather Stations






























Interactive Weather Map New forecast layout! Learn more

10-Day Weather Forecast

Advertisements
Track Severe Weather on mobile